Time;durP1;ratioP1;P1;durP2;ratioP2;P2;SDS_P1;SDS_P2;PMS_P1;PMS_P2;Temp;Humidity;BMP_temperature;BMP_pressure;BME280_temperature;BME280_humidity;BME280_pressure;Samples;Min_cycle;Max_cycle;Signal;HPM_P1;HPM_P2
2021/08/13 00:00:55;;;;;;;;;0.00;0.00;;;;;27.93;43.92;101307.16;5075990;28;45333;-65
2021/08/13 00:03:21;;;;;;;;;0.00;0.00;;;;;27.92;43.81;101308.16;5057581;28;45866;-64
2021/08/13 00:05:56;;;;;;;;;0.67;0.67;;;;;27.93;43.47;101305.34;5075167;28;45816;-64
2021/08/13 00:08:22;;;;;;;;;0.00;0.00;;;;;27.91;43.75;101301.81;5059335;28;45453;-64
2021/08/13 00:10:47;;;;;;;;;0.00;0.00;;;;;27.90;43.40;101299.13;5075729;28;45539;-64
2021/08/13 00:13:13;;;;;;;;;0.00;0.00;;;;;27.89;43.69;101300.97;5057683;28;45402;-64
2021/08/13 00:15:39;;;;;;;;;0.33;0.00;;;;;27.88;43.51;101304.66;5075964;28;45448;-65
2021/08/13 00:18:04;;;;;;;;;0.00;0.00;;;;;27.88;43.51;101306.53;5075821;28;45477;-65
2021/08/13 00:20:29;;;;;;;;;0.00;0.00;;;;;27.88;43.82;101303.78;5075753;28;45395;-65
2021/08/13 00:22:55;;;;;;;;;0.00;0.00;;;;;27.86;44.01;101314.75;5075643;28;45539;-65
2021/08/13 00:25:21;;;;;;;;;0.67;0.00;;;;;27.84;43.91;101316.69;5075714;28;45423;-64
2021/08/13 00:27:47;;;;;;;;;0.00;0.00;;;;;27.86;44.08;101324.81;5076049;28;45415;-64
2021/08/13 00:30:12;;;;;;;;;0.00;0.00;;;;;27.82;43.48;101318.59;5074969;28;45408;-66
2021/08/13 00:32:38;;;;;;;;;0.00;0.00;;;;;27.84;43.87;101326.75;5075669;28;45444;-65
2021/08/13 00:35:05;;;;;;;;;0.00;0.00;;;;;27.83;43.50;101325.81;5075829;28;45530;-64
2021/08/13 00:37:31;;;;;;;;;0.00;0.00;;;;;27.83;43.61;101319.47;5056899;28;45336;-64
2021/08/13 00:39:58;;;;;;;;;0.33;0.33;;;;;27.82;44.03;101323.19;5075564;28;46051;-64
2021/08/13 00:42:23;;;;;;;;;0.00;0.00;;;;;27.81;43.65;101315.94;5075868;28;45728;-65
2021/08/13 00:44:49;;;;;;;;;0.00;0.00;;;;;27.78;44.14;101314.25;5057468;28;45482;-65
2021/08/13 00:47:14;;;;;;;;;0.00;0.00;;;;;27.79;43.87;101318.75;5057698;28;45519;-64
2021/08/13 00:49:40;;;;;;;;;0.00;0.00;;;;;27.77;44.19;101314.31;5075805;28;45461;-64
2021/08/13 00:52:06;;;;;;;;;0.00;0.00;;;;;27.77;43.75;101322.53;5075813;28;44818;-65
2021/08/13 00:54:32;;;;;;;;;0.00;0.00;;;;;27.77;43.69;101327.97;5057274;28;45435;-64
2021/08/13 00:56:57;;;;;;;;;0.67;0.67;;;;;27.76;44.00;101326.22;5075659;28;45457;-64
2021/08/13 00:59:23;;;;;;;;;0.00;0.00;;;;;27.76;44.33;101331.69;5075216;28;46075;-65
2021/08/13 01:01:49;;;;;;;;;0.00;0.00;;;;;27.72;44.27;101318.16;5075756;28;45408;-64
2021/08/13 01:04:20;;;;;;;;;0.00;0.00;;;;;27.72;44.27;101326.38;5074099;28;45390;-64
2021/08/13 01:06:46;;;;;;;;;0.00;0.00;;;;;27.73;44.48;101319.03;5075732;28;45343;-64
2021/08/13 01:09:11;;;;;;;;;0.00;0.00;;;;;27.71;43.98;101316.41;5074880;28;46410;-64
2021/08/13 01:12:00;;;;;;;;;0.00;0.00;;;;;27.73;43.75;101319.03;5056701;28;45542;-64
2021/08/13 01:15:11;;;;;;;;;0.00;0.00;;;;;27.67;43.81;101314.78;5075360;28;45453;-65
2021/08/13 01:17:51;;;;;;;;;0.00;0.00;;;;;27.72;44.07;101329.09;4992250;28;45441;-65
2021/08/13 01:21:07;;;;;;;;;0.00;0.00;;;;;27.71;43.95;101326.44;4992174;28;46424;-64
2021/08/13 01:23:51;;;;;;;;;0.00;0.00;;;;;27.70;44.35;101325.56;4933439;28;45547;-65
2021/08/13 01:26:17;;;;;;;;;0.00;0.00;;;;;27.69;44.04;101312.88;4933321;28;45486;-64
2021/08/13 01:29:01;;;;;;;;;0.00;0.00;;;;;27.69;43.92;101312.88;4933894;28;45472;-64
2021/08/13 01:31:27;;;;;;;;;0.00;0.00;;;;;27.69;43.89;101312.88;4933778;28;46115;-64
2021/08/13 01:34:00;;;;;;;;;0.00;0.00;;;;;27.69;44.20;101315.59;4933699;28;45467;-64
2021/08/13 01:36:28;;;;;;;;;0.00;0.00;;;;;27.68;44.34;101310.19;4934106;28;45668;-64
2021/08/13 01:39:00;;;;;;;;;0.00;0.00;;;;;27.67;43.63;101306.59;4933863;28;45607;-64
2021/08/13 01:41:27;;;;;;;;;0.00;0.00;;;;;27.67;43.61;101314.78;4932788;28;45864;-64
2021/08/13 01:43:54;;;;;;;;;0.00;0.00;;;;;27.66;43.98;101313.00;4933255;28;45523;-64
2021/08/13 01:46:20;;;;;;;;;0.00;0.00;;;;;27.66;44.04;101318.47;4933839;28;45568;-64
2021/08/13 01:48:46;;;;;;;;;0.00;0.00;;;;;27.64;44.25;101304.00;4933680;28;45671;-64
2021/08/13 01:51:17;;;;;;;;;0.00;0.00;;;;;27.65;44.57;101308.50;4956529;28;45672;-64
2021/08/13 01:53:45;;;;;;;;;0.00;0.00;;;;;27.66;43.90;101312.13;4991837;28;45543;-64
2021/08/13 01:56:11;;;;;;;;;0.00;0.00;;;;;27.64;44.55;101320.38;4975262;28;45486;-64
2021/08/13 01:58:37;;;;;;;;;0.00;0.00;;;;;27.65;43.97;101315.78;5014058;28;45451;-64
2021/08/13 02:01:03;;;;;;;;;0.00;0.00;;;;;27.64;43.84;101317.66;5074558;28;45426;-64
2021/08/13 02:03:31;;;;;;;;;0.00;0.00;;;;;27.64;43.83;101320.38;5074367;28;45397;-65
2021/08/13 02:05:56;;;;;;;;;0.00;0.00;;;;;27.63;43.89;101329.56;5073471;28;45862;-64
2021/08/13 02:08:24;;;;;;;;;0.00;0.00;;;;;27.65;44.22;101329.47;5074768;28;45497;-64
2021/08/13 02:10:49;;;;;;;;;0.00;0.00;;;;;27.62;44.25;101325.03;5074423;28;45491;-64
2021/08/13 02:13:15;;;;;;;;;0.00;0.00;;;;;27.61;44.27;101331.47;5055937;28;45645;-64
2021/08/13 02:15:48;;;;;;;;;0.00;0.00;;;;;27.62;43.83;101327.78;5074462;28;45801;-65
2021/08/13 02:18:20;;;;;;;;;0.00;0.00;;;;;27.62;44.58;101322.31;5074343;28;45578;-64
2021/08/13 02:20:48;;;;;;;;;0.00;0.00;;;;;27.61;44.27;101309.63;5056050;28;47657;-65
2021/08/13 02:23:16;;;;;;;;;0.00;0.00;;;;;27.61;44.20;101309.63;5074377;28;45519;-65
2021/08/13 02:25:41;;;;;;;;;0.00;0.00;;;;;27.60;44.04;101313.28;5074256;28;45441;-65
2021/08/13 02:28:07;;;;;;;;;0.00;0.00;;;;;27.59;44.68;101308.81;5074468;28;45393;-64
2021/08/13 02:30:32;;;;;;;;;0.00;0.00;;;;;27.59;43.95;101318.81;5074287;28;45436;-64
2021/08/13 02:32:58;;;;;;;;;0.00;0.00;;;;;27.59;43.99;101316.09;5074153;28;45611;-64
2021/08/13 02:35:23;;;;;;;;;0.00;0.00;;;;;27.59;44.14;101324.28;5074066;28;45396;-64
2021/08/13 02:37:57;;;;;;;;;0.00;0.00;;;;;27.57;44.31;101318.94;5074455;28;45448;-64
2021/08/13 02:40:29;;;;;;;;;0.00;0.00;;;;;27.57;43.92;101324.38;5073851;28;45723;-65
2021/08/13 02:43:03;;;;;;;;;0.00;0.00;;;;;27.56;43.99;101314.41;5055449;28;45511;-64
2021/08/13 02:45:34;;;;;;;;;0.00;0.00;;;;;27.57;44.45;101313.47;5074144;28;45701;-64
2021/08/13 02:48:00;;;;;;;;;0.00;0.00;;;;;27.56;44.58;101317.13;5074223;28;45406;-64
2021/08/13 02:50:28;;;;;;;;;0.00;0.00;;;;;27.56;44.10;101328.06;5073941;28;46057;-64
2021/08/13 02:52:58;;;;;;;;;0.00;0.00;;;;;27.55;43.87;101326.28;5074000;28;45492;-64
2021/08/13 02:55:38;;;;;;;;;0.33;0.33;;;;;27.55;44.36;101329.00;5077324;28;45409;-64
2021/08/13 02:58:08;;;;;;;;;0.00;0.00;;;;;27.53;43.97;101322.72;5077392;28;45539;-64
2021/08/13 03:00:38;;;;;;;;;0.00;0.00;;;;;27.53;44.60;101330.94;5077218;28;45420;-65
2021/08/13 03:03:05;;;;;;;;;0.00;0.00;;;;;27.51;44.38;101341.03;5077001;27;45424;-64
2021/08/13 03:05:33;;;;;;;;;0.67;0.67;;;;;27.52;44.43;101338.25;5055305;28;45535;-64
2021/08/13 03:07:58;;;;;;;;;0.00;0.00;;;;;27.48;44.01;101343.94;5057443;28;44969;-64
2021/08/13 03:10:24;;;;;;;;;0.00;0.00;;;;;27.49;44.61;101340.22;5056877;28;45465;-65
2021/08/13 03:12:52;;;;;;;;;0.00;0.00;;;;;27.49;44.04;101348.44;5056820;28;45425;-64
2021/08/13 03:15:18;;;;;;;;;0.67;0.67;;;;;27.48;44.41;101341.22;5056943;28;45425;-65
2021/08/13 03:17:45;;;;;;;;;0.67;0.33;;;;;27.46;44.63;101330.34;5057024;28;45433;-64
2021/08/13 03:20:11;;;;;;;;;0.67;0.67;;;;;27.46;44.21;101329.47;5056749;28;45484;-64
2021/08/13 03:22:36;;;;;;;;;0.00;0.00;;;;;27.45;44.57;101330.41;5056581;28;45370;-64
2021/08/13 03:25:04;;;;;;;;;0.33;0.33;;;;;27.44;43.90;101331.38;5056764;28;45357;-64
2021/08/13 03:27:30;;;;;;;;;0.00;0.00;;;;;27.42;44.51;101330.56;5056885;28;45772;-64
2021/08/13 03:29:55;;;;;;;;;0.00;0.00;;;;;27.40;44.47;101327.03;5056523;28;45451;-64
2021/08/13 03:32:21;;;;;;;;;0.00;0.00;;;;;27.41;44.06;101334.25;5056642;28;45412;-64
2021/08/13 03:34:48;;;;;;;;;0.25;0.00;;;;;27.39;43.59;101327.97;5054657;28;45459;-65
2021/08/13 03:37:13;;;;;;;;;0.00;0.00;;;;;27.40;44.04;101327.03;5056948;28;45455;-64
2021/08/13 03:39:39;;;;;;;;;0.67;0.00;;;;;27.40;44.37;101327.03;5056316;28;45725;-64
2021/08/13 03:42:05;;;;;;;;;0.00;0.00;;;;;27.39;44.04;101325.22;5056472;28;45508;-64
2021/08/13 03:44:30;;;;;;;;;0.00;0.00;;;;;27.37;44.18;101314.41;5038326;28;45467;-64
2021/08/13 03:46:55;;;;;;;;;1.33;0.00;;;;;27.38;44.42;101324.34;5056581;28;45396;-65
2021/08/13 03:49:21;;;;;;;;;0.33;0.33;;;;;27.37;44.11;101339.00;5056195;28;45985;-65
2021/08/13 03:51:48;;;;;;;;;1.67;0.67;;;;;27.37;44.41;101332.63;5056357;28;45443;-64
2021/08/13 03:54:13;;;;;;;;;0.33;0.33;;;;;27.37;44.27;101332.63;5056188;28;45456;-65
2021/08/13 03:56:38;;;;;;;;;0.33;0.33;;;;;27.34;44.59;101334.53;5056412;28;45448;-65
2021/08/13 03:59:04;;;;;;;;;0.33;0.33;;;;;27.34;44.41;101329.06;5056262;28;45775;-65
2021/08/13 04:01:36;;;;;;;;;0.33;0.33;;;;;27.33;44.42;101332.78;5056108;28;45793;-64
2021/08/13 04:04:02;;;;;;;;;0.00;0.00;;;;;27.32;44.62;101341.91;5054541;28;45409;-64
2021/08/13 04:06:27;;;;;;;;;0.00;0.00;;;;;27.33;44.25;101340.09;5071227;28;45428;-64
2021/08/13 04:08:53;;;;;;;;;0.00;0.00;;;;;27.31;44.38;101345.63;5075568;28;46066;-64
2021/08/13 04:11:18;;;;;;;;;0.00;0.00;;;;;27.31;44.63;101351.06;5075923;28;45397;-64
2021/08/13 04:13:44;;;;;;;;;0.00;0.00;;;;;27.30;44.11;101353.88;5075942;28;45318;-64
2021/08/13 04:16:10;;;;;;;;;0.67;0.67;;;;;27.30;44.03;101362.94;5076459;28;45483;-64
2021/08/13 04:18:42;;;;;;;;;0.00;0.00;;;;;27.29;44.05;101358.47;5075736;28;45339;-64
2021/08/13 04:21:07;;;;;;;;;0.00;0.00;;;;;27.26;44.52;101355.84;5076095;28;45401;-64
2021/08/13 04:23:32;;;;;;;;;0.00;0.00;;;;;27.27;44.04;101354.91;5075906;28;45410;-64
2021/08/13 04:25:59;;;;;;;;;0.33;0.33;;;;;27.27;44.73;101354.91;5076005;28;45443;-64
2021/08/13 04:28:24;;;;;;;;;0.33;0.33;;;;;27.26;44.35;101358.59;5075706;28;45949;-64
2021/08/13 04:30:50;;;;;;;;;0.67;0.67;;;;;27.25;44.62;101351.38;5075758;28;45677;-64
2021/08/13 04:33:15;;;;;;;;;1.00;1.00;;;;;27.25;44.67;101362.28;5075712;28;45408;-64
2021/08/13 04:35:41;;;;;;;;;0.67;0.67;;;;;27.25;44.43;101355.94;5075870;28;45412;-64
2021/08/13 04:38:06;;;;;;;;;0.00;0.00;;;;;27.24;44.15;101357.75;5075553;28;45895;-64
2021/08/13 04:40:33;;;;;;;;;0.00;0.00;;;;;27.25;44.62;101361.41;5075494;28;45471;-64
2021/08/13 04:42:58;;;;;;;;;0.00;0.00;;;;;27.24;44.15;101359.63;5075573;28;45458;-64
2021/08/13 04:45:23;;;;;;;;;0.00;0.00;;;;;27.23;44.36;101353.28;5075505;28;45445;-65
2021/08/13 04:47:49;;;;;;;;;0.00;0.00;;;;;27.23;44.62;101356.00;5075427;28;45937;-64
2021/08/13 04:50:14;;;;;;;;;0.00;0.00;;;;;27.23;44.59;101358.75;5075348;28;45501;-64
2021/08/13 04:52:46;;;;;;;;;0.00;0.00;;;;;27.23;44.20;101368.72;5075453;28;45819;-64
2021/08/13 04:55:12;;;;;;;;;0.00;0.00;;;;;27.22;44.42;101367.84;5075678;28;45536;-64
2021/08/13 04:57:38;;;;;;;;;0.00;0.00;;;;;27.20;44.69;101367.03;5075012;28;45459;-64
2021/08/13 05:00:05;;;;;;;;;0.00;0.00;;;;;27.20;44.09;101375.22;5075221;28;45735;-64
2021/08/13 05:02:31;;;;;;;;;0.33;0.33;;;;;27.21;44.55;101377.00;5075450;27;45461;-64
2021/08/13 05:05:00;;;;;;;;;0.00;0.00;;;;;27.20;44.50;101375.22;5074034;28;45860;-65
2021/08/13 05:07:25;;;;;;;;;0.00;0.00;;;;;27.19;44.59;101376.19;5075085;28;45421;-64
2021/08/13 05:09:51;;;;;;;;;0.00;0.00;;;;;27.19;44.59;101387.13;5075222;28;44895;-64
2021/08/13 05:12:16;;;;;;;;;0.00;0.00;;;;;27.17;44.18;101377.19;5057122;28;45970;-64
2021/08/13 05:14:41;;;;;;;;;0.67;0.67;;;;;27.19;44.37;101383.47;5075159;28;45568;-64
2021/08/13 05:17:08;;;;;;;;;0.00;0.00;;;;;27.18;44.54;101396.25;5056485;28;46052;-64
2021/08/13 05:19:33;;;;;;;;;0.00;0.00;;;;;27.17;44.05;101393.56;5074747;28;45536;-64
2021/08/13 05:21:59;;;;;;;;;0.00;0.00;;;;;27.18;44.36;101392.63;5075283;28;45471;-64
2021/08/13 05:24:24;;;;;;;;;0.67;0.67;;;;;27.15;44.75;101407.31;5075452;28;45724;-64
2021/08/13 05:26:50;;;;;;;;;0.00;0.00;;;;;27.16;44.63;101417.28;5075063;28;45483;-64
2021/08/13 05:29:17;;;;;;;;;0.00;0.00;;;;;27.17;44.27;101419.06;5074915;28;45502;-64
2021/08/13 05:31:42;;;;;;;;;0.33;0.33;;;;;27.18;44.56;101430.88;5074517;28;45683;-65
2021/08/13 05:34:07;;;;;;;;;0.00;0.00;;;;;27.18;44.09;101422.69;5074891;28;45409;-64
2021/08/13 05:36:32;;;;;;;;;0.00;0.00;;;;;27.17;43.99;101427.25;5074604;28;45763;-64
2021/08/13 05:38:58;;;;;;;;;0.00;0.00;;;;;27.15;44.19;101429.16;5074699;28;45334;-65
2021/08/13 05:41:23;;;;;;;;;0.00;0.00;;;;;27.18;44.23;101430.88;5074923;28;45476;-64
2021/08/13 05:43:48;;;;;;;;;0.00;0.00;;;;;27.16;44.61;101420.00;5074624;28;45396;-64
2021/08/13 05:46:14;;;;;;;;;0.00;0.00;;;;;27.18;44.15;101425.41;5074814;28;45392;-64
2021/08/13 05:48:40;;;;;;;;;0.00;0.00;;;;;27.18;43.96;101425.41;5056396;28;45431;-64
2021/08/13 05:51:05;;;;;;;;;0.33;0.33;;;;;27.18;44.01;101439.94;5074487;28;45640;-64
2021/08/13 05:53:31;;;;;;;;;0.00;0.00;;;;;27.17;44.39;101434.53;5056488;28;45318;-64
2021/08/13 05:55:56;;;;;;;;;0.00;0.00;;;;;27.19;44.54;101439.00;5074563;28;45702;-64
2021/08/13 05:58:22;;;;;;;;;0.00;0.00;;;;;27.18;44.11;101431.75;5074187;28;45521;-64
2021/08/13 06:00:47;;;;;;;;;0.00;0.00;;;;;27.19;44.61;101447.19;5074723;28;45365;-64
2021/08/13 06:03:12;;;;;;;;;0.67;0.67;;;;;27.21;44.24;101442.56;5074374;27;45474;-64
2021/08/13 06:05:38;;;;;;;;;0.67;0.67;;;;;27.19;44.64;101419.88;5072853;28;45491;-64
2021/08/13 06:08:03;;;;;;;;;0.00;0.00;;;;;27.22;44.69;101427.03;5074091;28;45444;-64
2021/08/13 06:10:30;;;;;;;;;0.00;0.00;;;;;27.21;43.86;101426.16;5074363;28;45494;-64
2021/08/13 06:12:55;;;;;;;;;0.00;0.00;;;;;27.23;43.94;101434.25;5074411;28;45413;-64
2021/08/13 06:15:21;;;;;;;;;1.33;1.33;;;;;27.24;44.25;101436.97;5073742;28;45829;-64
2021/08/13 06:17:47;;;;;;;;;3.00;1.00;;;;;27.24;44.14;101445.16;5055830;28;45497;-64
2021/08/13 06:20:19;;;;;;;;;3.00;0.00;;;;;27.24;43.87;101447.88;5074129;28;45416;-63
2021/08/13 06:22:45;;;;;;;;;1.00;1.00;;;;;27.25;44.27;101455.16;5074007;28;45389;-64
2021/08/13 06:25:11;;;;;;;;;0.00;0.00;;;;;27.23;43.57;101448.88;5073836;28;46053;-64
2021/08/13 06:27:45;;;;;;;;;1.33;1.00;;;;;27.25;43.79;101448.81;5073961;28;45381;-64
2021/08/13 06:30:12;;;;;;;;;0.00;0.00;;;;;27.24;43.39;101447.88;5070363;27;45524;-64
2021/08/13 06:32:38;;;;;;;;;1.00;1.00;;;;;27.26;43.54;101456.91;5066415;28;45501;-64
2021/08/13 06:35:06;;;;;;;;;0.00;0.00;;;;;27.25;43.71;101474.25;5058814;28;46955;-63
2021/08/13 06:37:32;;;;;;;;;0.00;0.00;;;;;27.26;43.70;101473.28;5058146;28;45401;-64
2021/08/13 06:39:57;;;;;;;;;0.67;0.67;;;;;27.28;43.56;101473.22;5067835;27;45786;-63
2021/08/13 06:42:23;;;;;;;;;0.67;0.67;;;;;27.29;44.08;101480.47;5064646;28;45396;-63
2021/08/13 06:44:48;;;;;;;;;1.33;1.33;;;;;27.28;43.89;101468.66;5054270;28;45434;-64
2021/08/13 06:47:14;;;;;;;;;0.00;0.00;;;;;27.30;43.54;101477.66;5058968;28;45730;-64
2021/08/13 06:49:40;;;;;;;;;0.00;0.00;;;;;27.30;44.07;101466.72;5076618;28;45529;-64
2021/08/13 06:52:09;;;;;;;;;0.00;0.00;;;;;27.31;43.42;101471.25;5077151;28;45501;-64
2021/08/13 06:54:35;;;;;;;;;0.67;0.67;;;;;27.32;43.40;101478.47;5076544;28;45472;-64
2021/08/13 06:57:00;;;;;;;;;1.00;1.00;;;;;27.34;43.80;101476.56;5077657;27;45393;-64
2021/08/13 06:59:25;;;;;;;;;0.00;0.00;;;;;27.37;43.45;101477.38;5067527;28;45503;-64
2021/08/13 07:01:51;;;;;;;;;0.00;0.00;;;;;27.36;43.36;101475.63;5057232;28;45500;-64
2021/08/13 07:04:16;;;;;;;;;1.67;0.00;;;;;27.37;43.41;101475.56;5056923;28;45411;-64
2021/08/13 07:06:41;;;;;;;;;0.00;0.00;;;;;27.41;43.69;101484.47;5054458;28;45890;-64
2021/08/13 07:09:07;;;;;;;;;1.33;1.00;;;;;27.42;43.76;101489.88;5037957;28;45413;-64
2021/08/13 07:11:34;;;;;;;;;1.00;1.00;;;;;27.44;43.87;101492.56;5036929;28;45482;-64
2021/08/13 07:13:59;;;;;;;;;1.00;1.00;;;;;27.44;43.73;101493.44;5048472;28;45951;-64
2021/08/13 07:16:24;;;;;;;;;0.00;0.00;;;;;27.46;43.24;101488.78;5038997;28;45499;-65
2021/08/13 07:18:50;;;;;;;;;0.67;0.67;;;;;27.49;43.37;101495.97;5039366;28;45584;-64
2021/08/13 07:21:15;;;;;;;;;0.00;0.00;;;;;27.51;43.55;101496.78;5038606;28;45483;-65
2021/08/13 07:23:42;;;;;;;;;0.67;0.67;;;;;27.54;43.90;101504.84;5036356;28;46227;-64
2021/08/13 07:26:07;;;;;;;;;0.33;0.33;;;;;27.56;43.63;101510.25;5037789;28;45918;-64
2021/08/13 07:28:32;;;;;;;;;1.33;1.33;;;;;27.58;43.23;101514.69;5052819;28;45595;-64
2021/08/13 07:30:58;;;;;;;;;0.67;0.67;;;;;27.60;43.07;101515.50;5042885;28;45448;-64
2021/08/13 07:33:23;;;;;;;;;0.67;0.67;;;;;27.62;43.35;101513.59;5036320;28;45923;-64
2021/08/13 07:35:50;;;;;;;;;1.00;1.00;;;;;27.65;43.07;101507.09;5037476;28;45406;-64
2021/08/13 07:38:15;;;;;;;;;1.00;0.00;;;;;27.66;42.98;101517.06;5046604;28;45501;-65
2021/08/13 07:40:40;;;;;;;;;0.00;0.00;;;;;27.71;43.11;101523.22;5035734;28;45417;-65
2021/08/13 07:43:07;;;;;;;;;0.67;0.67;;;;;27.73;43.18;101530.41;5051192;28;45438;-65
2021/08/13 07:45:33;;;;;;;;;0.00;0.00;;;;;27.76;42.76;101531.22;5037542;28;45476;-65
2021/08/13 07:47:58;;;;;;;;;0.00;0.00;;;;;27.80;42.53;101530.13;5047778;28;45826;-65
2021/08/13 07:50:25;;;;;;;;;1.33;1.33;;;;;27.80;42.96;101528.28;5056511;28;45464;-64
2021/08/13 07:52:51;;;;;;;;;0.67;0.67;;;;;27.83;42.54;101538.16;5050225;28;45546;-64
2021/08/13 07:55:16;;;;;;;;;0.67;0.67;;;;;27.84;42.28;101545.44;5048187;28;46606;-64
2021/08/13 07:57:41;;;;;;;;;0.33;0.33;;;;;27.87;42.47;101539.84;5055661;28;45449;-64
2021/08/13 08:00:08;;;;;;;;;0.00;0.00;;;;;27.89;42.87;101548.84;5056259;28;44765;-66
2021/08/13 08:02:34;;;;;;;;;0.00;0.00;;;;;27.90;42.22;101557.00;5055468;28;45804;-64
2021/08/13 08:04:59;;;;;;;;;0.00;0.00;;;;;27.92;42.67;101557.81;5056053;28;45452;-64
2021/08/13 08:07:24;;;;;;;;;1.67;0.67;;;;;27.93;42.48;101555.97;5076037;28;45453;-64
2021/08/13 08:09:50;;;;;;;;;0.00;0.00;;;;;27.98;41.87;101570.31;5075862;28;45696;-64
2021/08/13 08:12:17;;;;;;;;;0.67;0.67;;;;;28.00;41.90;101568.41;5075611;28;45517;-64
2021/08/13 08:14:42;;;;;;;;;0.00;0.00;;;;;28.03;41.92;101568.25;5054847;28;45441;-64
2021/08/13 08:17:08;;;;;;;;;0.00;0.00;;;;;28.05;41.99;101571.78;5074533;28;45920;-65
2021/08/13 08:19:33;;;;;;;;;1.67;1.67;;;;;28.06;42.03;101567.25;5074065;28;45485;-64
2021/08/13 08:22:00;;;;;;;;;0.67;0.67;;;;;28.09;42.00;101578.91;5076298;27;45469;-64
2021/08/13 08:24:26;;;;;;;;;0.67;0.67;;;;;28.12;41.92;101570.56;5075593;28;45514;-65
2021/08/13 08:26:52;;;;;;;;;0.00;0.00;;;;;28.16;41.84;101579.53;5075529;28;45342;-65
2021/08/13 08:29:17;;;;;;;;;0.00;0.00;;;;;28.19;42.11;101583.97;5055689;28;45417;-64
2021/08/13 08:31:43;;;;;;;;;0.67;0.67;;;;;28.21;42.09;101576.56;5073036;28;46062;-64
2021/08/13 08:34:08;;;;;;;;;1.67;1.67;;;;;28.21;41.74;101582.91;5070668;28;45448;-64
2021/08/13 08:36:34;;;;;;;;;0.00;0.00;;;;;28.23;41.93;101578.25;5046728;28;45526;-64
2021/08/13 08:38:59;;;;;;;;;0.67;0.67;;;;;28.20;41.80;101572.97;5057055;27;45465;-64
2021/08/13 08:41:25;;;;;;;;;0.67;0.67;;;;;28.26;41.56;101574.53;5095392;27;45510;-64
2021/08/13 08:43:51;;;;;;;;;1.00;1.00;;;;;28.28;41.36;101578.06;5095045;27;45788;-64
2021/08/13 08:46:19;;;;;;;;;0.00;0.00;;;;;28.29;41.42;101575.25;5071230;27;45427;-64
2021/08/13 08:48:50;;;;;;;;;1.00;1.00;;;;;28.30;41.20;101577.03;5062542;28;45480;-65
2021/08/13 08:51:17;;;;;;;;;0.00;0.00;;;;;28.31;41.31;101576.06;5058297;28;45472;-64
2021/08/13 08:53:54;;;;;;;;;0.67;0.67;;;;;28.31;40.98;101573.31;5055026;28;45598;-64
2021/08/13 08:56:23;;;;;;;;;2.67;2.67;;;;;28.34;41.57;101566.84;5067971;27;45512;-64
2021/08/13 08:58:49;;;;;;;;;0.00;0.00;;;;;28.36;40.85;101569.47;5073474;28;45730;-64
2021/08/13 09:01:16;;;;;;;;;0.67;0.67;;;;;28.37;40.74;101561.19;5066073;28;45447;-64
2021/08/13 09:03:44;;;;;;;;;0.67;0.67;;;;;28.39;41.07;101553.81;5057527;28;45428;-64
2021/08/13 09:06:13;;;;;;;;;0.67;0.67;;;;;28.42;40.45;101560.97;5051386;28;44875;-64
2021/08/13 09:08:39;;;;;;;;;1.00;1.00;;;;;28.42;40.61;101558.25;5048649;28;45671;-64
2021/08/13 09:11:04;;;;;;;;;1.67;0.67;;;;;28.46;41.00;101559.88;5052482;28;45408;-64
2021/08/13 09:13:33;;;;;;;;;0.67;0.67;;;;;28.47;41.25;101573.47;5053410;28;45746;-64
2021/08/13 09:16:12;;;;;;;;;0.33;0.33;;;;;28.50;41.17;101569.75;5051801;28;45603;-64
2021/08/13 09:18:38;;;;;;;;;1.33;0.00;;;;;28.51;40.97;101574.25;5051341;28;45547;-64
2021/08/13 09:21:03;;;;;;;;;2.33;1.33;;;;;28.51;41.16;101569.66;5051444;28;45522;-64
2021/08/13 09:23:38;;;;;;;;;1.00;1.00;;;;;28.52;40.79;101566.00;5052668;28;45488;-64
2021/08/13 09:26:07;;;;;;;;;0.33;0.33;;;;;28.56;40.53;101571.31;5052780;28;47054;-65
2021/08/13 09:28:44;;;;;;;;;0.67;0.67;;;;;28.57;40.45;101573.97;5052614;28;45804;-64
2021/08/13 09:31:17;;;;;;;;;0.67;0.67;;;;;28.59;40.42;101573.91;5052061;28;45839;-64
2021/08/13 09:33:45;;;;;;;;;0.00;0.00;;;;;28.60;40.80;101575.66;5052557;28;45607;-65
2021/08/13 09:36:12;;;;;;;;;0.33;0.33;;;;;28.63;40.21;101564.56;5051673;28;45643;-65
2021/08/13 09:38:38;;;;;;;;;0.00;0.00;;;;;28.63;40.33;101553.63;5052179;28;45599;-64
2021/08/13 09:41:09;;;;;;;;;1.33;0.67;;;;;28.63;40.64;101553.63;5050717;28;46164;-64
2021/08/13 09:44:02;;;;;;;;;1.33;1.33;;;;;28.66;40.42;101550.72;5053049;28;44925;-64
2021/08/13 09:46:30;;;;;;;;;1.00;1.00;;;;;28.68;40.62;101559.75;5051004;28;45547;-64
2021/08/13 09:49:16;;;;;;;;;0.67;0.67;;;;;28.68;40.05;101559.75;5051677;28;45459;-64
2021/08/13 09:51:42;;;;;;;;;1.00;1.00;;;;;28.70;40.42;101560.56;5051152;28;46113;-64
2021/08/13 09:54:09;;;;;;;;;0.00;0.00;;;;;28.71;40.57;101565.09;5052334;28;45713;-64
2021/08/13 09:56:37;;;;;;;;;0.00;0.00;;;;;28.72;40.11;101569.59;5051194;28;45567;-64
2021/08/13 09:59:16;;;;;;;;;0.67;0.67;;;;;28.72;40.03;101561.38;5053269;28;45393;-64
2021/08/13 10:01:51;;;;;;;;;0.00;0.00;;;;;28.74;40.20;101553.97;5051795;28;45508;-64
2021/08/13 10:04:19;;;;;;;;;0.33;0.33;;;;;28.74;39.70;101551.22;5057188;28;45431;-64
2021/08/13 10:06:45;;;;;;;;;0.00;0.00;;;;;28.76;39.76;101552.03;5064832;28;45421;-64
2021/08/13 10:09:25;;;;;;;;;1.00;1.00;;;;;28.77;39.86;101558.44;5068049;28;46215;-64
2021/08/13 10:11:54;;;;;;;;;1.00;1.00;;;;;28.78;39.59;101552.84;5073026;28;46174;-64
2021/08/13 10:14:31;;;;;;;;;0.00;0.00;;;;;28.79;39.59;101543.69;5071324;28;45322;-65
2021/08/13 10:17:17;;;;;;;;;0.33;0.33;;;;;28.81;39.84;101543.63;5047706;28;45535;-65
2021/08/13 10:19:51;;;;;;;;;0.67;0.67;;;;;28.82;39.73;101545.38;5073404;28;45409;-65
2021/08/13 10:22:20;;;;;;;;;0.67;0.67;;;;;28.82;40.32;101550.88;5073415;28;46234;-65
2021/08/13 10:24:53;;;;;;;;;1.67;1.33;;;;;28.83;39.82;101547.19;5055068;28;46041;-65
2021/08/13 10:27:19;;;;;;;;;1.00;0.67;;;;;28.84;40.32;101551.69;5055337;28;45362;-65
2021/08/13 10:29:47;;;;;;;;;0.00;0.00;;;;;28.85;39.99;101557.09;5073532;28;45416;-65
2021/08/13 10:32:16;;;;;;;;;1.67;0.00;;;;;28.85;40.22;101550.72;5070380;28;45468;-66
2021/08/13 10:34:42;;;;;;;;;0.33;0.33;;;;;28.86;40.11;101553.38;5053180;28;45417;-65
2021/08/13 10:37:15;;;;;;;;;0.00;0.00;;;;;28.85;40.04;101557.09;5059220;27;45675;-65
2021/08/13 10:39:41;;;;;;;;;0.33;0.33;;;;;28.87;39.66;101563.38;5094384;27;45420;-65
2021/08/13 10:42:08;;;;;;;;;0.00;0.00;;;;;28.87;39.96;101560.63;5093778;27;45528;-65
2021/08/13 10:44:43;;;;;;;;;1.00;1.00;;;;;28.89;40.12;101564.19;5077207;27;45570;-65
2021/08/13 10:47:16;;;;;;;;;0.00;0.00;;;;;28.90;39.75;101562.31;5071532;28;45522;-65
2021/08/13 10:49:45;;;;;;;;;0.33;0.33;;;;;28.90;39.88;101555.00;5073422;28;45407;-65
2021/08/13 10:52:10;;;;;;;;;0.00;0.00;;;;;28.90;39.78;101546.81;5054835;28;48171;-65
2021/08/13 10:54:40;;;;;;;;;0.67;0.67;;;;;28.91;39.82;101551.31;5073898;27;45455;-65
2021/08/13 10:57:06;;;;;;;;;1.00;1.00;;;;;28.91;39.54;101556.78;5073710;28;45219;-65
2021/08/13 10:59:40;;;;;;;;;0.67;0.67;;;;;28.93;39.73;101551.22;5073555;28;45458;-65
2021/08/13 11:02:10;;;;;;;;;0.00;0.00;;;;;28.93;39.69;101554.84;5073349;28;45440;-65
2021/08/13 11:04:40;;;;;;;;;0.00;0.00;;;;;28.93;39.83;101554.84;5073149;28;45571;-65
2021/08/13 11:07:06;;;;;;;;;0.00;0.00;;;;;28.95;40.29;101545.69;5071910;28;45501;-65
2021/08/13 11:09:33;;;;;;;;;0.33;0.33;;;;;28.96;39.92;101551.06;5073093;28;45427;-65
2021/08/13 11:12:03;;;;;;;;;1.00;1.00;;;;;28.96;39.78;101550.19;5073758;27;46093;-65
2021/08/13 11:14:34;;;;;;;;;0.00;0.00;;;;;28.97;40.02;101543.75;5074164;28;45777;-65
2021/08/13 11:17:01;;;;;;;;;1.00;1.00;;;;;28.97;39.74;101539.16;5076905;28;45455;-65
2021/08/13 11:19:27;;;;;;;;;0.67;0.67;;;;;28.96;40.05;101536.50;5077268;28;45516;-65
2021/08/13 11:21:55;;;;;;;;;2.33;1.00;;;;;28.99;39.83;101541.81;5057767;28;46989;-65
2021/08/13 11:24:25;;;;;;;;;0.00;0.00;;;;;28.98;39.95;101542.78;5076434;28;45619;-66
2021/08/13 11:26:54;;;;;;;;;0.00;0.00;;;;;29.00;40.17;101540.84;5076636;28;45516;-65